Tiempo atmosférico en la estación meteorológica de Priego de Cordoba, Córdoba (520 m.)



Fecha
DESCASC
Temp. máxima en grados centígrados (hora)
DESCASC
Temp. mínima en grados centígrados (hora)
DESCASC
Temp. media en grados centígrados
DESCASC
Racha de viento máxima en m/sg (hora)
DESCASC
Velocidad máxima media en intervalos de 10 minutos(hora)
DESCASC
Precipitaciones diarias en mm
DESCASC
Precipitaciones de 00:00 a 06:00 en mm
DESCASC
Precipitaciones de 06:00 a 12:00 en mm
DESCASC
Precipitaciones de 12:00 a 18:00 en mm
DESCASC
Precipitaciones de 18:00 a 24:00 en mm
DESCASC
22-04-2019 19.5 (17:50) 8.8 (04:30) 14.2 12.5 (21:10) 9.17 (23:10) 0 0 0 0 0
21-04-2019 13.9 (15:40) 9.3 (09:20) 11.6 10.28 (16:10) 5.56 (16:30) 0 0 0 0 0
20-04-2019 16.6 (15:50) 7.7 (04:10) 12.2 10.83 (09:30) 7.5 (19:30) 0.8 0.2 0 0.4 0.2
19-04-2019 16.6 (19:40) 7.4 (07:20) 12 8.33 (14:30) 6.11 (14:30) 3 0 0 2.6 0.4
18-04-2019 14.9 (15:10) 8.2 (00:00) 11.5 11.67 (20:10) 6.94 (14:50) 14.6 4.2 2.4 1.6 6.4
17-04-2019 26.8 (15:00) 11.1 (00:00) 18.9 16.39 (13:20) 10.56 (13:20) 0 0 0 0 0
16-04-2019 27.1 (17:50) 8.6 (00:00) 17.9 9.44 (19:30) 6.67 (19:30) 0 0 0 0 0
15-04-2019 26.2 (15:40) 10.1 (00:00) 18.2 13.89 (19:20) 9.17 (18:30) 0 0 0 0 0
14-04-2019 24.5 (18:00) 7.2 (00:00) 15.8 7.22 (18:30) 4.72 (18:20) 0 0 0 0 0
13-04-2019 21.6 (18:00) 5.3 (00:00) 13.5 8.33 (18:30) 4.44 (14:20) 0 0 0 0 0
12-04-2019 19.4 (17:50) 3.5 (00:00) 11.4 8.61 (14:10) 4.44 (13:10) 0 0 0 0 0
11-04-2019 17.2 (18:00) 5.5 (00:00) 11.4 8.61 (16:20) 5 (17:00) 0 0 0 0 0
10-04-2019 14.6 (19:10) 6.5 (00:00) 10.6 13.06 (23:10) 6.39 (17:40) 0 0 0 0 0
09-04-2019 14.5 (18:10) 6.4 (00:00) 10.5 13.06 (15:50) 7.5 (15:50) 0.2 0 0 0.2 0
08-04-2019 14.1 (15:00) 10.4 (00:00) 12.3 12.5 (18:40) 7.78 (19:00) 10.2 2 0.2 7.6 0.4
07-04-2019 11.6 (23:40) 5.4 (00:00) 8.5 11.11 (03:10) 6.94 (23:30) 9.8 1.4 0.2 0.4 7.8
06-04-2019 10.8 (15:00) 4.8 (00:00) 7.8 14.17 (16:10) 7.5 (02:30) 19.6 0.4 2.8 4.2 12.2
05-04-2019 10.7 (16:40) 6.1 (00:00) 8.4 13.89 (19:40) 8.89 (16:20) 8.6 0 4 3.6 1
04-04-2019 17.9 (16:00) 3.9 (00:00) 10.9 11.67 (16:50) 7.22 (16:40) 0 0 0 0 0
03-04-2019 20.4 (16:50) 7.1 (00:00) 13.7 11.39 (16:40) 7.5 (19:00) 0 0 0 0 0
02-04-2019 19.3 (19:00) 5.8 (00:00) 12.5 6.11 (19:00) 4.17 (19:00) 0 0 0 0 0
01-04-2019 17.7 (18:30) 9.1 (00:00) 13.4 8.33 (19:30) 6.11 (13:30) 0 0 0 0 0
31-03-2019 16.4 (18:30) 10.1 (00:00) 13.3 8.61 (23:20) 5.83 (23:20) 9.8 1.2 7.2 1.2 0.2
30-03-2019 23 (17:20) 7.9 (00:00) 15.5 8.61 (14:30) 6.67 (17:50) 0 0 0 0 0
29-03-2019 22.3 (15:50) 6.6 (00:00) 14.4 8.33 (13:30) 5.83 (17:20) 0 0 0 0 0
28-03-2019 21.1 (15:20) 3.6 (00:00) 12.4 10 (07:30) 6.11 (19:10) 0 0 0 0 0
27-03-2019 20.4 (16:30) 8.4 (00:00) 14.4 12.5 (06:00) 6.39 (18:20) 0 0 0 0 0
26-03-2019 24.3 (14:10) 8.9 (00:00) 16.6 11.94 (22:50) 5.83 (16:00) 0 0 0 0 0
25-03-2019 23 (16:20) 6.1 (00:00) 14.5 7.22 (11:30) 4.17 (13:00) 0 0 0 0 0

Gráficas

Temp. máximas Temp. mínimas Temp. medias Precipitaciones Rachas de viento máximas Velocidades máximas media en intervalos de 10 minutos

Datos horarios

Fecha y hora oficial Temperatura (ºC) Velocidad del viento (km/h) Dirección del viento Racha (km/h) Dirección de racha Precipitación (mm) Presión (hPa) Tendencia (hPa) Humedad (%)
2019-04-23 23:00:00 8.9 19 Sudoeste 33 Sudoeste 0 -- -- 76
2019-04-23 22:00:00 8.7 17 Sudoeste 42 Sudoeste 0 -- -- 70
2019-04-23 21:00:00 9.4 20 Sudoeste 42 Oeste 0 -- -- 69
2019-04-23 20:00:00 9.9 24 Sudoeste 41 Sudoeste 0 -- -- 71
2019-04-23 19:00:00 10.8 19 Sudoeste 37 Oeste 0 -- -- 73
2019-04-23 18:00:00 8.7 16 Sur 47 Oeste 1.2 -- -- 91
2019-04-23 17:00:00 10.3 16 Sur 59 Oeste 0.4 -- -- 81
2019-04-23 16:00:00 12.6 27 Oeste 45 Sudoeste 0 -- -- 62
2019-04-23 15:00:00 12.2 25 Sudoeste 40 Sudoeste 0.2 -- -- 62
2019-04-23 14:00:00 11.1 18 Sudoeste 29 Sudoeste 0 -- -- 65
2019-04-23 13:00:00 10.3 23 Sudoeste 32 Sudoeste 0 -- -- 77
2019-04-23 12:00:00 8.7 16 Sudoeste 33 Sudoeste 0 -- -- 91
2019-04-23 11:00:00 8.5 18 Sudoeste 51 Sudoeste 2.2 -- -- 91
2019-04-23 10:00:00 9.6 10 Sudoeste 32 Sudoeste 2.4 -- -- 93
2019-04-23 09:00:00 10.4 14 Sudoeste 23 Sudoeste 0.6 -- -- 90
2019-04-23 08:00:00 11.1 4 Oeste 14 Sudoeste 0 -- -- 79
2019-04-23 07:00:00 11 11 Sudoeste 23 Sudoeste 0 -- -- 81
2019-04-23 06:00:00 11.2 16 Sur 22 Sudoeste 0 -- -- 81
2019-04-23 05:00:00 11.6 17 Sudoeste 25 Sur 0 -- -- 79
2019-04-23 04:00:00 11.8 13 Sur 31 Sur 0 -- -- 79
2019-04-23 03:00:00 12.1 18 Sur 31 Sudoeste 0 -- -- 79
2019-04-23 02:00:00 12.5 22 Sudoeste 33 Sudoeste 0 -- -- 76
2019-04-23 01:00:00 12.6 20 Sudoeste 28 Sudoeste 0 -- -- 71
2019-04-23 00:00:00 13.3 18 Sudoeste 42 Sudoeste 0 -- -- 66
2019-04-22 23:00:00 14 29 Sudoeste 40 Sudoeste 0 -- -- 66
2019-04-22 22:00:00 15.1 22 Sudoeste 45 Sudoeste 0 -- -- 59
2019-04-22 21:00:00 16.1 23 Sudoeste 45 Oeste 0 -- -- 56
2019-04-22 20:00:00 17.3 13 Sudoeste 28 Oeste 0 -- -- 50
2019-04-22 19:00:00 17.6 18 Sudoeste 34 Sudoeste 0 -- -- 48
2019-04-22 18:00:00 19.4 20 Sudoeste 35 Sudoeste 0 -- -- 48
2019-04-22 17:00:00 18.8 21 Sudoeste 31 Sudoeste 0 -- -- 50
2019-04-22 16:00:00 17 14 Oeste 28 Oeste 0 -- -- 54
2019-04-22 15:00:00 17 6 Sudoeste 23 Oeste 0 -- -- 56
2019-04-22 14:00:00 15.9 11 Oeste 25 Sudoeste 0 -- -- 58
2019-04-22 13:00:00 15.1 10 Sudoeste 22 Oeste 0 -- -- 63
2019-04-22 12:00:00 13.6 6 Nordeste 17 Norte 0 -- -- 67
2019-04-22 11:00:00 12.5 4 Norte 8 Norte 0 -- -- 71
2019-04-22 10:00:00 11 0 Calma 5 Este 0 -- -- 78
2019-04-22 09:00:00 9.7 0 Calma 14 Nordeste 0 -- -- 86
2019-04-22 08:00:00 9.3 5 Nordeste 10 Nordeste 0 -- -- 85
2019-04-22 07:00:00 9.4 8 Norte 15 Norte 0 -- -- 83
2019-04-22 06:00:00 9.6 10 Norte 18 Nordeste 0 -- -- 81
2019-04-22 05:00:00 9.2 8 Nordeste 19 Nordeste 0 -- -- 85
2019-04-22 04:00:00 9.5 12 Norte 19 Noroeste 0 -- -- 82
2019-04-22 03:00:00 9.7 5 Nordeste 14 Norte 0 -- -- 83
2019-04-22 02:00:00 10.2 7 Norte 19 Norte 0 -- -- 80
2019-04-22 01:00:00 10.7 8 Norte 20 Norte 0 -- -- 79
2019-04-22 00:00:00 11 9 Norte 24 Nordeste 0 -- -- 77
2019-04-21 23:00:00 11.4 13 Norte 30 Norte 0 -- -- 75
2019-04-21 22:00:00 11.6 17 Norte 28 Norte 0 -- -- 75
2019-04-21 21:00:00 11.9 12 Norte 23 Norte 0 -- -- 73
2019-04-21 20:00:00 11.9 13 Nordeste 25 Norte 0 -- -- 76
2019-04-21 19:00:00 12.8 12 Norte 23 Norte 0 -- -- 72
2019-04-21 18:00:00 12.8 14 Norte 28 Norte 0 -- -- 72
2019-04-21 17:00:00 12.7 19 Norte 37 Norte 0 -- -- 74
2019-04-21 16:00:00 13.6 17 Norte 27 Norte 0 -- -- 73
2019-04-21 15:00:00 13.1 13 Norte 26 Norte 0 -- -- 75
2019-04-21 14:00:00 13.5 9 Nordeste 17 Norte 0 -- -- 74
2019-04-21 13:00:00 13 10 Nordeste 15 Nordeste 0 -- -- 76
2019-04-21 12:00:00 11.8 7 Nordeste 15 Nordeste 0 -- -- 81
2019-04-21 11:00:00 10.5 6 Nordeste 13 Este 0 -- -- 87
2019-04-21 10:00:00 9.4 9 Este 15 Nordeste 0 -- -- 89
2019-04-21 09:00:00 9.4 9 Nordeste 18 Norte 0 -- -- 86
2019-04-21 08:00:00 9.6 11 Norte 20 Nordeste 0 -- -- 81
2019-04-21 07:00:00 10.1 10 Norte 23 Norte 0 -- -- 77
2019-04-21 06:00:00 10.5 10 Norte 20 Noroeste 0 -- -- 76
2019-04-21 05:00:00 10.7 10 Norte 23 Norte 0 -- -- 77
2019-04-21 04:00:00 10.7 7 Este 16 Noroeste 0 -- -- 79
2019-04-21 03:00:00 11 11 Nordeste 18 Norte 0 -- -- 77
2019-04-21 02:00:00 11 3 Norte 11 Nordeste 0 -- -- 84
2019-04-21 01:00:00 11.8 4 Nordeste 9 Nordeste 0 -- -- 80
2019-04-21 00:00:00 12.5 6 Nordeste 13 Norte 0 -- -- 77
2019-04-20 23:00:00 12.7 3 Sur 7 Nordeste 0 -- -- 83
2019-04-20 22:00:00 13.1 6 Norte 19 Nordeste 0 -- -- 78
2019-04-20 21:00:00 13.3 13 Nordeste 25 Nordeste 0 -- -- 76
2019-04-20 20:00:00 13.5 20 Norte 38 Nordeste 0 -- -- 75
2019-04-20 19:00:00 14.4 21 Norte 38 Norte 0.2 -- -- 76
2019-04-20 18:00:00 14.9 20 Norte 32 Norte 0 -- -- 74
2019-04-20 17:00:00 13.8 18 Nordeste 38 Nordeste 0.2 -- -- 82
2019-04-20 16:00:00 16.2 22 Nordeste 31 Nordeste 0 -- -- 64
2019-04-20 15:00:00 16.3 14 Nordeste 26 Norte 0.2 -- -- 64
2019-04-20 14:00:00 15.3 17 Norte 26 Norte 0 -- -- 71
2019-04-20 13:00:00 14.3 8 Norte 18 Norte 0 -- -- 72
2019-04-20 12:00:00 12.7 9 Nordeste 22 Norte 0 -- -- 79
2019-04-20 11:00:00 11.5 14 Nordeste 32 Nordeste 0 -- -- 87
2019-04-20 10:00:00 10.2 21 Norte 39 Norte 0 -- -- 90
2019-04-20 09:00:00 9.5 24 Norte 34 Norte 0 -- -- 91
2019-04-20 08:00:00 8.9 13 Nordeste 26 Norte 0 -- -- 93
2019-04-20 07:00:00 8.4 10 Nordeste 18 Nordeste 0 -- -- 95
2019-04-20 06:00:00 8.3 9 Nordeste 16 Nordeste 0 -- -- 95
2019-04-20 05:00:00 8.1 10 Nordeste 15 Nordeste 0 -- -- 97
2019-04-20 04:00:00 7.8 10 Sudoeste 14 Sudoeste 0 -- -- 96
2019-04-20 03:00:00 8.2 5 Norte 9 Sudoeste 0 -- -- 95
2019-04-20 02:00:00 8.6 9 Sudoeste 10 Sudoeste 0 -- -- 94
2019-04-20 01:00:00 9.4 4 Norte 8 Norte 0.2 -- -- 93
2019-04-20 00:00:00 10.4 2 Sur 9 Sur 0 -- -- 89
2019-04-19 23:00:00 11 4 Sur 13 Norte 0.4 -- -- 88
2019-04-19 22:00:00 11.5 10 Nordeste 25 Norte 0 -- -- 82
2019-04-19 21:00:00 13.7 3 Este 8 Oeste 0 -- -- 71
2019-04-19 20:00:00 15.6 3 Oeste 9 Sudoeste 0 -- -- 62
2019-04-19 19:00:00 15.8 6 Sudoeste 14 Oeste 0 -- -- 63
2019-04-19 18:00:00 13.5 8 Sudoeste 13 Oeste 0 -- -- 81
2019-04-19 17:00:00 12.2 4 Sudeste 10 Sudoeste 0.4 -- -- 82
2019-04-19 16:00:00 10.3 7 Sur 22 Sur 2.2 -- -- 89
2019-04-19 15:00:00 11.4 11 Sudoeste 30 Sudoeste 0 -- -- 74
2019-04-19 14:00:00 14.4 6 Sur 27 Nordeste 0 -- -- 67
2019-04-19 13:00:00 15.8 10 Nordeste 19 Nordeste 0 -- -- 58
2019-04-19 12:00:00 14.1 5 Norte 19 Nordeste 0 -- -- 69
2019-04-19 11:00:00 13 9 Nordeste 16 Nordeste 0 -- -- 72
2019-04-19 10:00:00 11.3 9 Norte 13 Norte 0 -- -- 78
2019-04-19 09:00:00 10 3 Nordeste 10 Sudoeste 0 -- -- 89
2019-04-19 08:00:00 7.5 6 Oeste 9 Sudoeste 0 -- -- 95
2019-04-19 07:00:00 7.6 6 Sudoeste 10 Oeste 0 -- -- 95
2019-04-19 06:00:00 8.2 0 Calma 9 Oeste 0 -- -- 94
2019-04-19 05:00:00 8.2 2 Sudoeste 9 Sur 0 -- -- 94
2019-04-19 04:00:00 8.3 2 Sudoeste 9 Oeste 0 -- -- 94
2019-04-19 03:00:00 8.3 4 Sudoeste 12 Sudoeste 0 -- -- 95
2019-04-19 02:00:00 8.1 6 Sudoeste 12 Sudoeste 0 -- -- 95
2019-04-19 01:00:00 8.1 5 Sudoeste 10 Sudoeste 0 -- -- 95
2019-04-19 00:00:00 8.3 3 Sudeste 10 Norte 0 -- -- 95
2019-04-18 23:00:00 8.4 5 Sudoeste 13 Sur 0 -- -- 93
2019-04-18 22:00:00 8.5 6 Oeste 16 Sudoeste 0.4 -- -- 92
2019-04-18 21:00:00 8.3 9 Sur 42 Sudoeste 4.8 -- -- 93
2019-04-18 20:00:00 9.1 14 Sudoeste 31 Sur 1.2 -- -- 88
2019-04-18 19:00:00 11.5 10 Este 23 Nordeste 0 -- -- 84
2019-04-18 18:00:00 12.1 12 Nordeste 26 Norte 0 -- -- 84
2019-04-18 17:00:00 13.7 10 Sudoeste 17 Sudoeste 0.4 -- -- 80
2019-04-18 16:00:00 12.5 11 Sur 29 Sur 0.4 -- -- 85
2019-04-18 15:00:00 14.3 22 Sudoeste 34 Sudoeste 0 -- -- 71
2019-04-18 14:00:00 14.1 4 Sudoeste 9 Sudoeste 0 -- -- 80
2019-04-18 13:00:00 12.6 7 Oeste 15 Norte 0.8 -- -- 81
2019-04-18 12:00:00 14 5 Sudeste 19 Oeste 0 -- -- 76
2019-04-18 11:00:00 11.9 8 Sudoeste 13 Sudoeste 0 -- -- 86
2019-04-18 10:00:00 10.7 6 Sudoeste 9 Sudoeste 0 -- -- 94
2019-04-18 09:00:00 10 6 Oeste 10 Este 1.4 -- -- 94
2019-04-18 08:00:00 10 4 Sudeste 10 Este 0.6 -- -- 94
2019-04-18 07:00:00 10 2 Sudoeste 10 Oeste 0.4 -- -- 92
2019-04-18 06:00:00 10 4 Sudoeste 14 Sudoeste 1.8 -- -- 91
2019-04-18 05:00:00 10.3 12 Sudoeste 24 Sudoeste 1.2 -- -- 89
2019-04-18 04:00:00 11 16 Sudoeste 25 Sudoeste 0 -- -- 90
2019-04-18 03:00:00 11 9 Oeste 14 Oeste 0.2 -- -- 91
2019-04-18 02:00:00 11.1 6 Sur 19 Oeste 1 -- -- 88
2019-04-18 01:00:00 11.8 12 Sur 26 Sudoeste 0 -- -- 79
2019-04-18 00:00:00 12.4 15 Sudoeste 28 Sudoeste 0 -- -- 72
2019-04-17 23:00:00 12.8 20 Sudoeste 35 Sudoeste 0 -- -- 71
2019-04-17 22:00:00 14.3 17 Oeste 37 Sudoeste 0 -- -- 71
2019-04-17 21:00:00 15.5 21 Sudoeste 41 Sudoeste 0 -- -- 65
2019-04-17 20:00:00 15.9 20 Sudoeste 40 Sudoeste 0 -- -- 66
2019-04-17 19:00:00 16.7 19 Sudoeste 37 Sudoeste 0 -- -- 65
2019-04-17 18:00:00 18.4 18 Sudoeste 31 Oeste 0 -- -- 60
2019-04-17 17:00:00 19.9 13 Nordeste 28 Este 0 -- -- 54
2019-04-17 16:00:00 22.1 15 Este 37 Sudeste 0 -- -- 44
2019-04-17 15:00:00 26.8 18 Sur 40 Sur 0 -- -- 28
2019-04-17 14:00:00 25.2 30 Sur 59 Sudeste 0 -- -- 29
2019-04-17 13:00:00 25.4 31 Sur 50 Sudeste 0 -- -- 29
2019-04-17 12:00:00 23.2 11 Sur 30 Sudeste 0 -- -- 32
2019-04-17 11:00:00 23.1 14 Sur 26 Sudeste 0 -- -- 32
2019-04-17 10:00:00 20.8 9 Sudeste 23 Sur 0 -- -- 31
2019-04-17 09:00:00 18.5 4 Sudeste 15 Sur 0 -- -- 33
2019-04-17 08:00:00 16.7 5 Sudoeste 31 Sur 0 -- -- 35
2019-04-17 07:00:00 16.9 22 Sur 34 Sur 0 -- -- 38
2019-04-17 06:00:00 17.2 27 Sur 40 Sur 0 -- -- 42
2019-04-17 05:00:00 14.6 16 Sur 30 Sudeste 0 -- -- 52
2019-04-17 04:00:00 11.9 7 Sudoeste 16 Sur 0 -- -- 60
2019-04-17 03:00:00 11.2 8 Sudoeste 12 Oeste 0 -- -- 63
2019-04-17 02:00:00 11.5 9 Sudoeste 13 Sudoeste 0 -- -- 61
2019-04-17 01:00:00 12.9 8 Sudoeste 17 Sur 0 -- -- 55
2019-04-17 00:00:00 14.8 2 Oeste 12 Sudoeste 0 -- -- 44
2019-04-16 23:00:00 15.7 10 Sudoeste 21 Sudoeste 0 -- -- 43
2019-04-16 22:00:00 17.8 11 Sudoeste 19 Oeste 0 -- -- 34
2019-04-16 21:00:00 20.3 11 Sur 22 Sudoeste 0 -- -- 28
2019-04-16 20:00:00 24.1 15 Sur 34 Sur 0 -- -- 23
2019-04-16 19:00:00 25.3 21 Sur 33 Sur 0 -- -- 20
2019-04-16 18:00:00 27.1 13 Sudoeste 22 Oeste 0 -- -- 27
2019-04-16 17:00:00 26.6 10 Sudoeste 28 Sudoeste 0 -- -- 32
2019-04-16 16:00:00 25.5 14 Sudoeste 26 Sudoeste 0 -- -- 33
2019-04-16 15:00:00 23.2 5 Nordeste 19 Norte 0 -- -- 43
2019-04-16 14:00:00 21.1 7 Noroeste 17 Nordeste 0 -- -- 46
2019-04-16 13:00:00 20.3 10 Nordeste 16 Nordeste 0 -- -- 47
2019-04-16 12:00:00 17.8 7 Norte 17 Norte 0 -- -- 58
2019-04-16 11:00:00 16 9 Norte 15 Nordeste 0 -- -- 72
2019-04-16 10:00:00 14.6 0 Calma 6 Sudoeste 0 -- -- 78
2019-04-16 09:00:00 10.9 5 Sudoeste 10 Sudoeste 0 -- -- 89
2019-04-16 08:00:00 8.7 10 Sudoeste 12 Sudoeste 0 -- -- 92
2019-04-16 07:00:00 9.3 5 Sudoeste 8 Sudoeste 0 -- -- 90
2019-04-16 06:00:00 10 3 Norte 6 Oeste 0 -- -- 90
2019-04-16 05:00:00 11.3 4 Sur 10 Sur 0 -- -- 86
2019-04-16 04:00:00 12 7 Sur 12 Sur 0 -- -- 83
2019-04-16 03:00:00 13 6 Sur 12 Sudoeste 0 -- -- 81
2019-04-16 02:00:00 13.7 5 Sudoeste 22 Sudoeste 0 -- -- 77
2019-04-16 01:00:00 14.1 21 Sudoeste 32 Sur 0 -- -- 76
2019-04-16 00:00:00 14.2 22 Sur 42 Sudoeste 0 -- -- 74
2019-04-15 23:00:00 15.2 24 Sudoeste 38 Oeste 0 -- -- 67
2019-04-15 22:00:00 16.4 27 Oeste 44 Oeste 0 -- -- 64
2019-04-15 21:00:00 18.7 20 Oeste 31 Oeste 0 -- -- 46
2019-04-15 20:00:00 21.4 15 Sudoeste 50 Oeste 0 -- -- 34
2019-04-15 19:00:00 23.4 26 Oeste 49 Sudoeste 0 -- -- 32
2019-04-15 18:00:00 24.8 24 Oeste 44 Oeste 0 -- -- 30
2019-04-15 17:00:00 25.4 23 Sudoeste 37 Sudoeste 0 -- -- 35
2019-04-15 16:00:00 25.8 21 Oeste 43 Sudoeste 0 -- -- 35
2019-04-15 15:00:00 26 19 Sudoeste 35 Sudoeste 0 -- -- 31
2019-04-15 14:00:00 24.9 24 Sudoeste 33 Sudoeste 0 -- -- 33
2019-04-15 13:00:00 24.2 18 Sudoeste 31 Sudoeste 0 -- -- 35
2019-04-15 12:00:00 22 6 Sudoeste 18 Sudoeste 0 -- -- 46
2019-04-15 11:00:00 18.6 11 Sur 17 Sur 0 -- -- 56
2019-04-15 10:00:00 14.7 11 Sudoeste 18 Sudoeste 0 -- -- 76
2019-04-15 09:00:00 11.2 13 Sudoeste 15 Sudoeste 0 -- -- 86
2019-04-15 08:00:00 10.2 8 Sudoeste 13 Sudoeste 0 -- -- 89
2019-04-15 07:00:00 10.2 12 Sudoeste 14 Sudoeste 0 -- -- 88
2019-04-15 06:00:00 10.9 7 Sudoeste 15 Sudoeste 0 -- -- 86
2019-04-15 05:00:00 11.2 8 Sudoeste 10 Sudoeste 0 -- -- 86
2019-04-15 04:00:00 12 6 Sur 12 Sudoeste 0 -- -- 83
2019-04-15 03:00:00 12.8 10 Sudoeste 13 Sudoeste 0 -- -- 80
2019-04-15 02:00:00 13.4 11 Sudoeste 13 Sudoeste 0 -- -- 79
2019-04-15 01:00:00 14.7 9 Sudoeste 16 Sudoeste 0 -- -- 73
2019-04-15 00:00:00 15.5 9 Sudoeste 12 Sudoeste 0 -- -- 72
2019-04-14 23:00:00 16.7 6 Sudoeste 9 Sudoeste 0 -- -- 65
2019-04-14 22:00:00 18.2 7 Sudoeste 9 Sudoeste 0 -- -- 59
2019-04-14 21:00:00 19.7 3 Nordeste 11 Nordeste 0 -- -- 54
2019-04-14 20:00:00 21.4 8 Nordeste 16 Norte 0 -- -- 50
2019-04-14 19:00:00 22.4 11 Norte 26 Norte 0 -- -- 46
2019-04-14 18:00:00 24.5 12 Norte 25 Norte 0 -- -- 40
2019-04-14 17:00:00 24 11 Nordeste 20 Nordeste 0 -- -- 42
2019-04-14 16:00:00 23.3 14 Norte 24 Nordeste 0 -- -- 42
2019-04-14 15:00:00 22.9 10 Nordeste 25 Norte 0 -- -- 42
2019-04-14 14:00:00 22.6 11 Nordeste 20 Nordeste 0 -- -- 39
2019-04-14 13:00:00 21.6 8 Oeste 13 Norte 0 -- -- 41
2019-04-14 12:00:00 20.1 6 Nordeste 12 Nordeste 0 -- -- 39
2019-04-14 11:00:00 18.6 5 Nordeste 8 Norte 0 -- -- 49
2019-04-14 10:00:00 13.2 6 Sudoeste 10 Sudoeste 0 -- -- 66
2019-04-14 09:00:00 9.3 7 Sudoeste 13 Sudoeste 0 -- -- 79
2019-04-14 08:00:00 7.2 11 Sudoeste 13 Sudoeste 0 -- -- 86
2019-04-14 07:00:00 7.9 6 Sudoeste 10 Sudoeste 0 -- -- 82
2019-04-14 06:00:00 9.4 3 Sudoeste 6 Sudoeste 0 -- -- 74
2019-04-14 05:00:00 10.8 3 Sudoeste 9 Sur 0 -- -- 66
2019-04-14 04:00:00 11.3 6 Sur 15 Sur 0 -- -- 66
2019-04-14 03:00:00 11.6 10 Sur 13 Sur 0 -- -- 65
2019-04-14 02:00:00 12.2 8 Sur 13 Sur 0 -- -- 62
2019-04-14 01:00:00 12 8 Sudoeste 13 Sudoeste 0 -- -- 61
2019-04-14 00:00:00 12.3 7 Sudoeste 13 Sudoeste 0 -- -- 58
2019-04-13 23:00:00 13.2 10 Sudoeste 13 Sudoeste 0 -- -- 54
2019-04-13 22:00:00 15.3 8 Sur 9 Sur 0 -- -- 45
2019-04-13 21:00:00 17.9 4 Sudoeste 12 Oeste 0 -- -- 38
2019-04-13 20:00:00 20 9 Noroeste 22 Noroeste 0 -- -- 31
2019-04-13 19:00:00 20.6 13 Noroeste 30 Noroeste 0 -- -- 31
2019-04-13 18:00:00 21.6 9 Noroeste 26 Norte 0 -- -- 30
2019-04-13 17:00:00 21 10 Norte 22 Norte 0 -- -- 30
2019-04-13 16:00:00 20.6 12 Norte 24 Norte 0 -- -- 31
2019-04-13 15:00:00 20 12 Norte 27 Norte 0 -- -- 31
2019-04-13 14:00:00 19.4 14 Nordeste 24 Norte 0 -- -- 34
2019-04-13 13:00:00 18.9 12 Nordeste 24 Norte 0 -- -- 32
2019-04-13 12:00:00 17.5 8 Nordeste 14 Nordeste 0 -- -- 44
2019-04-13 11:00:00 14.4 2 Sudoeste 5 Sudoeste 0 -- -- 62
2019-04-13 10:00:00 12.2 2 Sudoeste 6 Sudoeste 0 -- -- 66
2019-04-13 09:00:00 7.8 4 Sudoeste 9 Oeste 0 -- -- 80
2019-04-13 08:00:00 5.3 5 Sudoeste 10 Sudoeste 0 -- -- 85
2019-04-13 07:00:00 5.7 2 Sudoeste 12 Sudoeste 0 -- -- 84
2019-04-13 06:00:00 5.9 8 Sudoeste 13 Sudoeste 0 -- -- 83
2019-04-13 05:00:00 6.9 6 Sudoeste 10 Sudoeste 0 -- -- 78
2019-04-13 04:00:00 7.6 7 Oeste 12 Sudoeste 0 -- -- 74
2019-04-13 03:00:00 8.8 5 Sudoeste 12 Sudoeste 0 -- -- 67
2019-04-13 02:00:00 8.3 6 Sudoeste 10 Sudoeste 0 -- -- 72
2019-04-13 01:00:00 9 9 Sudoeste 13 Sudoeste 0 -- -- 69
2019-04-13 00:00:00 9.4 10 Sudoeste 12 Sudoeste 0 -- -- 66
2019-04-12 23:00:00 10.6 6 Sur 13 Sudoeste 0 -- -- 62
2019-04-12 22:00:00 12.6 9 Sudoeste 12 Sudoeste 0 -- -- 55
2019-04-12 21:00:00 16 0 Calma 12 Noroeste 0 -- -- 40
2019-04-12 20:00:00 18 9 Noroeste 19 Nordeste 0 -- -- 33
2019-04-12 19:00:00 18.9 9 Norte 22 Norte 0 -- -- 33
2019-04-12 18:00:00 19.3 12 Noroeste 22 Norte 0 -- -- 33
2019-04-12 17:00:00 18.7 14 Norte 25 Nordeste 0 -- -- 35
2019-04-12 16:00:00 18.4 13 Norte 27 Nordeste 0 -- -- 34
2019-04-12 15:00:00 18 15 Norte 31 Norte 0 -- -- 36
2019-04-12 14:00:00 17.3 10 Norte 27 Norte 0 -- -- 41
2019-04-12 13:00:00 17.1 13 Norte 23 Norte 0 -- -- 35
2019-04-12 12:00:00 17 11 Nordeste 19 Nordeste 0 -- -- 40
2019-04-12 11:00:00 14.2 2 Sur 8 Sudoeste 0 -- -- 58
2019-04-12 10:00:00 9.4 6 Sudoeste 9 Sudoeste 0 -- -- 76
2019-04-12 09:00:00 5.5 8 Sudoeste 15 Sudoeste 0 -- -- 91
2019-04-12 08:00:00 3.6 9 Sudoeste 12 Sudoeste 0 -- -- 92
2019-04-12 07:00:00 4.2 3 Sudoeste 6 Nordeste 0 -- -- 89
2019-04-12 06:00:00 5 0 Calma 10 Sudoeste 0 -- -- 90
2019-04-12 05:00:00 5.1 8 Sudoeste 12 Sudoeste 0 -- -- 90
2019-04-12 04:00:00 5.4 10 Sudoeste 13 Sudoeste 0 -- -- 90
2019-04-12 03:00:00 6.1 12 Sudoeste 13 Sudoeste 0 -- -- 88
2019-04-12 02:00:00 6.8 11 Sudoeste 13 Sudoeste 0 -- -- 86
2019-04-12 01:00:00 8.3 12 Sudoeste 14 Sudoeste 0 -- -- 81
2019-04-12 00:00:00 9.6 5 Noroeste 12 Nordeste 0 -- -- 74
2019-04-11 23:00:00 10.1 9 Sudoeste 11 Sudoeste 0 -- -- 75
2019-04-11 22:00:00 12.3 7 Sudoeste 10 Sudoeste 0 -- -- 61
2019-04-11 21:00:00 13.9 5 Norte 14 Norte 0 -- -- 52
2019-04-11 20:00:00 14.9 6 Norte 16 Nordeste 0 -- -- 48
2019-04-11 19:00:00 16 5 Norte 26 Norte 0 -- -- 45
2019-04-11 18:00:00 17.2 12 Norte 24 Norte 0 -- -- 40
2019-04-11 17:00:00 16.6 18 Noroeste 31 Noroeste 0 -- -- 41
2019-04-11 16:00:00 16.2 13 Norte 29 Norte 0 -- -- 44
2019-04-11 15:00:00 15.5 13 Noroeste 27 Noroeste 0 -- -- 47
2019-04-11 14:00:00 14.8 12 Norte 24 Noroeste 0 -- -- 52
2019-04-11 13:00:00 14.2 13 Norte 27 Norte 0 -- -- 57
2019-04-11 12:00:00 13.8 12 Nordeste 19 Nordeste 0 -- -- 59
2019-04-11 11:00:00 13.7 5 Este 10 Este 0 -- -- 65
2019-04-11 10:00:00 10.1 3 Sur 13 Sudoeste 0 -- -- 76
2019-04-11 09:00:00 6.5 5 Sur 8 Oeste 0 -- -- 87
2019-04-11 08:00:00 5.6 3 Sur 6 Sudoeste 0 -- -- 87
2019-04-11 07:00:00 6.2 5 Sudoeste 11 Sudoeste 0 -- -- 85
2019-04-11 06:00:00 6.8 6 Sudoeste 11 Sudoeste 0 -- -- 81
2019-04-11 05:00:00 6.9 3 Nordeste 9 Noroeste 0 -- -- 82
2019-04-11 04:00:00 7.7 5 Sur 10 Sudoeste 0 -- -- 78
2019-04-11 03:00:00 8.8 4 Sur 11 Norte 0 -- -- 71
2019-04-11 02:00:00 10.3 0 Calma 18 Noroeste 0 -- -- 64
2019-04-11 01:00:00 10.9 8 Nordeste 28 Noroeste 0 -- -- 63
2019-04-11 00:00:00 12.6 12 Oeste 47 Oeste 0 -- -- 54
2019-04-10 23:00:00 13.3 23 Noroeste 44 Oeste 0 -- -- 51
2019-04-10 22:00:00 12.7 13 Oeste 22 Oeste 0 -- -- 56
2019-04-10 21:00:00 12.9 5 Oeste 15 Sudoeste 0 -- -- 60
2019-04-10 20:00:00 13.8 9 Sudoeste 26 Sudoeste 0 -- -- 60
2019-04-10 19:00:00 13.9 18 Sudoeste 32 Sudoeste 0 -- -- 58
2019-04-10 18:00:00 13.7 17 Sudoeste 33 Sudoeste 0 -- -- 62
2019-04-10 17:00:00 13.6 12 Noroeste 33 Noroeste 0 -- -- 56
2019-04-10 16:00:00 12.8 9 Oeste 26 Noroeste 0 -- -- 57
2019-04-10 15:00:00 12.5 14 Sudoeste 23 Sudoeste 0 -- -- 61
2019-04-10 14:00:00 11.5 12 Norte 22 Norte 0 -- -- 62
2019-04-10 13:00:00 10.7 6 Norte 18 Norte 0 -- -- 68
2019-04-10 12:00:00 11.1 8 Sur 15 Sudoeste 0 -- -- 70
2019-04-10 11:00:00 9.5 10 Norte 14 Norte 0 -- -- 74
2019-04-10 10:00:00 9 4 Sudeste 13 Sudoeste 0 -- -- 81
2019-04-10 09:00:00 7.1 3 Sudeste 12 Noroeste 0 -- -- 85
2019-04-10 08:00:00 6.5 3 Sur 11 Sur 0 -- -- 87
2019-04-10 07:00:00 6.6 6 Sudoeste 9 Sur 0 -- -- 87
2019-04-10 06:00:00 7.5 9 Sudoeste 17 Oeste 0 -- -- 81
2019-04-10 05:00:00 8.6 5 Sudoeste 21 Noroeste 0 -- -- 78
2019-04-10 04:00:00 9.5 10 Noroeste 27 Noroeste 0 -- -- 74
2019-04-10 03:00:00 10.1 6 Noroeste 24 Oeste 0 -- -- 70
2019-04-10 02:00:00 10.2 9 Oeste 24 Sudoeste 0 -- -- 80
2019-04-10 01:00:00 10.3 16 Sudoeste 27 Sudoeste 0 -- -- 85
2019-04-10 00:00:00 9.9 12 Sudoeste 24 Sudoeste 0 -- -- 87
2019-04-09 23:00:00 10.3 16 Sudoeste 27 Sudoeste 0 -- -- 80
2019-04-09 22:00:00 10.8 14 Sudoeste 33 Sur 0 -- -- 81
2019-04-09 21:00:00 11.5 18 Sudoeste 27 Sur 0 -- -- 76
2019-04-09 20:00:00 13.4 21 Sudoeste 39 Sudoeste 0 -- -- 62
2019-04-09 19:00:00 14.4 25 Sudoeste 43 Oeste 0 -- -- 63
2019-04-09 18:00:00 13.8 24 Sudoeste 41 Oeste 0 -- -- 62
2019-04-09 17:00:00 12.7 26 Sudoeste 41 Oeste 0 -- -- 67
2019-04-09 16:00:00 13 27 Sudoeste 47 Sudoeste 0 -- -- 71
2019-04-09 15:00:00 12.7 22 Sudoeste 41 Sudoeste 0 -- -- 64
2019-04-09 14:00:00 13 23 Sudoeste 37 Oeste 0 -- -- 70
2019-04-09 13:00:00 10.7 9 Sudoeste 28 Sur 0.2 -- -- 84
2019-04-09 12:00:00 11 14 Sudoeste 26 Sudoeste 0 -- -- 80
2019-04-09 11:00:00 9.4 10 Sudoeste 19 Sudoeste 0 -- -- 84
2019-04-09 10:00:00 8.7 11 Sudoeste 15 Sudoeste 0 -- -- 88
2019-04-09 09:00:00 7.2 5 Sur 12 Sur 0 -- -- 93
2019-04-09 08:00:00 6.4 8 Sur 10 Sur 0 -- -- 92
2019-04-09 07:00:00 7.1 5 Sur 13 Sudoeste 0 -- -- 91
2019-04-09 06:00:00 8.2 5 Sudoeste 10 Sur 0 -- -- 90
2019-04-09 05:00:00 8.9 4 Sudeste 11 Oeste 0 -- -- 89
2019-04-09 04:00:00 9.5 5 Oeste 17 Oeste 0 -- -- 87
2019-04-09 03:00:00 9.9 13 Sudoeste 25 Sudoeste 0 -- -- 86
2019-04-09 02:00:00 10.1 15 Sudoeste 22 Sudoeste 0 -- -- 88
2019-04-09 01:00:00 10.3 5 Sudoeste 32 Sudoeste 0 -- -- 87
2019-04-09 00:00:00 10.7 17 Sudoeste 31 Sudoeste 0 -- -- 84
2019-04-08 23:00:00 11.1 17 Sudoeste 26 Sur 0 -- -- 89
2019-04-08 22:00:00 11.5 14 Sur 23 Sudoeste 0 -- -- 89
2019-04-08 21:00:00 11.6 7 Sudoeste 23 Sudoeste 0 -- -- 89
2019-04-08 20:00:00 11.7 16 Sudoeste 41 Sur 0 -- -- 91
2019-04-08 19:00:00 12.1 28 Sudoeste 45 Sudoeste 0.4 -- -- 92
2019-04-08 18:00:00 13.1 21 Sudoeste 36 Sudoeste 0 -- -- 90
2019-04-08 17:00:00 12.5 11 Sudoeste 19 Sudoeste 3.8 -- -- 95
2019-04-08 16:00:00 12.6 13 Sudoeste 34 Sudoeste 1.6 -- -- 93
2019-04-08 15:00:00 14.1 26 Sudoeste 37 Sudoeste 0 -- -- 82
2019-04-08 14:00:00 12.5 21 Sudoeste 33 Sudoeste 1.4 -- -- 88
2019-04-08 13:00:00 12.2 19 Sudoeste 31 Sudoeste 0.8 -- -- 89
2019-04-08 12:00:00 11.9 12 Sudoeste 23 Sudoeste 0 -- -- 88
2019-04-08 11:00:00 11.6 17 Sur 21 Sur 0 -- -- 89
2019-04-08 10:00:00 11 12 Sur 25 Sudoeste 0 -- -- 90
2019-04-08 09:00:00 10.8 18 Sudoeste 42 Sudoeste 0 -- -- 90
2019-04-08 08:00:00 10.6 20 Sudoeste 30 Sudoeste 0.2 -- -- 92
2019-04-08 07:00:00 10.7 21 Sudoeste 28 Sudoeste 0 -- -- 93
2019-04-08 06:00:00 10.5 14 Sudoeste 23 Sudoeste 0 -- -- 95
2019-04-08 05:00:00 10.7 17 Sudoeste 30 Sudoeste 0 -- -- 95
2019-04-08 04:00:00 10.6 13 Sudoeste 21 Sudoeste 1 -- -- 97
2019-04-08 03:00:00 10.5 14 Sudoeste 24 Sudoeste 0.2 -- -- 96
2019-04-08 02:00:00 11.1 15 Sudoeste 26 Sudoeste 0.4 -- -- 95
2019-04-08 01:00:00 11.4 19 Sudoeste 32 Sudoeste 0.4 -- -- 94
2019-04-08 00:00:00 11.6 18 Sudoeste 37 Sudoeste 0.2 -- -- 96
2019-04-07 23:00:00 10.7 12 Sur 17 Sur 2.8 -- -- 97
2019-04-07 22:00:00 10.3 8 Sudoeste 18 Sudoeste 2.6 -- -- 97
2019-04-07 21:00:00 10.2 15 Sudoeste 21 Sur 1.2 -- -- 96
2019-04-07 20:00:00 10.2 17 Sudoeste 21 Sudoeste 0.6 -- -- 95
2019-04-07 19:00:00 10.5 14 Sudoeste 21 Sudoeste 0.4 -- -- 94
2019-04-07 18:00:00 10.5 13 Sudoeste 22 Sudoeste 0 -- -- 91
2019-04-07 17:00:00 10.2 16 Sudoeste 27 Sudoeste 0.4 -- -- 89
2019-04-07 16:00:00 10.9 12 Sudoeste 23 Sudoeste 0 -- -- 78
2019-04-07 15:00:00 10.7 17 Sudoeste 29 Sudoeste 0 -- -- 75
2019-04-07 14:00:00 11.5 17 Sudoeste 27 Sudoeste 0 -- -- 70
2019-04-07 13:00:00 10 13 Sudoeste 26 Sudoeste 0 -- -- 76
2019-04-07 12:00:00 9.8 18 Sudoeste 24 Sudoeste 0 -- -- 77
2019-04-07 11:00:00 9.2 11 Sudoeste 26 Sudoeste 0 -- -- 85
2019-04-07 10:00:00 8 12 Sudoeste 20 Sur 0 -- -- 88
2019-04-07 09:00:00 7.1 11 Sur 36 Sudoeste 0 -- -- 91
2019-04-07 08:00:00 7.1 9 Sur 31 Sudoeste 0.2 -- -- 90
2019-04-07 07:00:00 7.2 17 Sudoeste 36 Sudoeste 0 -- -- 89
2019-04-07 06:00:00 7.1 20 Sudoeste 35 Sudoeste 0 -- -- 90
2019-04-07 05:00:00 7.1 21 Sudoeste 39 Sudoeste 0 -- -- 90
2019-04-07 04:00:00 7 23 Sudoeste 40 Sudoeste 0 -- -- 91
2019-04-07 03:00:00 7.1 20 Sudoeste 33 Sudoeste 0.2 -- -- 94
2019-04-07 02:00:00 6.9 21 Sudoeste 29 Sudoeste 0 -- -- 97
2019-04-07 01:00:00 6.1 18 Sudoeste 37 Noroeste 1.2 -- -- 97
2019-04-07 00:00:00 5.7 23 Noroeste 44 Noroeste 2.6 -- -- 94
2019-04-06 23:00:00 5.5 13 Sur 23 Sur 0 -- -- 96
2019-04-06 22:00:00 5 13 Oeste 46 Oeste 9.4 -- -- 93
2019-04-06 21:00:00 7.1 14 Sur 34 Sudoeste 0.2 -- -- 89
2019-04-06 20:00:00 7.2 23 Sudoeste 39 Sudoeste 0 -- -- 86
2019-04-06 19:00:00 8 17 Sudoeste 28 Sudoeste 0 -- -- 89
2019-04-06 18:00:00 7.3 23 Sur 36 Sudoeste 0.6 -- -- 92
2019-04-06 17:00:00 6.5 12 Sur 51 Noroeste 3 -- -- 91
2019-04-06 16:00:00 9.4 10 Oeste 41 Sudoeste 0 -- -- 74
2019-04-06 15:00:00 10.8 26 Sudoeste 42 Sudoeste 0.6 -- -- 76
2019-04-06 14:00:00 9.4 19 Sudoeste 37 Sudoeste 0 -- -- 80
2019-04-06 13:00:00 8 27 Sudoeste 40 Sudoeste 0 -- -- 83
2019-04-06 12:00:00 6.2 14 Sudoeste 35 Sudoeste 2.2 -- -- 91
2019-04-06 11:00:00 7 7 Sudoeste 23 Sudoeste 0.6 -- -- 91
2019-04-06 10:00:00 7.1 14 Sudoeste 21 Sur 0 -- -- 87
2019-04-06 09:00:00 6.9 13 Sur 19 Sur 0 -- -- 86
2019-04-06 08:00:00 6.4 18 Sudoeste 29 Sudoeste 0 -- -- 87
2019-04-06 07:00:00 6.2 19 Sudoeste 31 Sudoeste 0 -- -- 89
2019-04-06 06:00:00 6.1 17 Sudoeste 27 Sudoeste 0 -- -- 89
2019-04-06 05:00:00 5.9 19 Sudoeste 36 Sudoeste 0.2 -- -- 88
2019-04-06 04:00:00 6.1 20 Sudoeste 39 Sudoeste 0 -- -- 88
2019-04-06 03:00:00 5.8 21 Sudoeste 44 Sudoeste 0 -- -- 88
2019-04-06 02:00:00 6 23 Sudoeste 36 Sur 0 -- -- 86
2019-04-06 01:00:00 6.4 25 Sudoeste 40 Sudoeste 0.2 -- -- 85
2019-04-06 00:00:00 6.5 23 Sudoeste 36 Sudoeste 0 -- -- 87
2019-04-05 23:00:00 6.3 24 Oeste 48 Sudoeste 1 -- -- 88
2019-04-05 22:00:00 7.6 14 Sudoeste 40 Sudoeste 0 -- -- 75
2019-04-05 21:00:00 8.6 24 Sudoeste 48 Sudoeste 0 -- -- 69
2019-04-05 20:00:00 9 24 Sudoeste 50 Sudoeste 0 -- -- 59
2019-04-05 19:00:00 9.9 26 Sudoeste 44 Sudoeste 0 -- -- 59
2019-04-05 18:00:00 10.4 25 Sudoeste 44 Oeste 0 -- -- 66
2019-04-05 17:00:00 10.2 25 Sudoeste 47 Sudoeste 0 -- -- 63
2019-04-05 16:00:00 9.5 21 Sudoeste 32 Sudoeste 0.2 -- -- 83
2019-04-05 15:00:00 7.9 22 Sudoeste 34 Sur 1 -- -- 92
2019-04-05 14:00:00 7.7 20 Sudoeste 31 Sudoeste 1.4 -- -- 92
2019-04-05 13:00:00 8 13 Sudoeste 26 Sur 1 -- -- 91
2019-04-05 12:00:00 7.6 17 Sudoeste 26 Sudoeste 1.6 -- -- 90
2019-04-05 11:00:00 7.4 13 Sudoeste 28 Sur 1.2 -- -- 90
2019-04-05 10:00:00 7.7 12 Sudoeste 18 Sur 0.8 -- -- 90
2019-04-05 09:00:00 7.4 6 Sudoeste 16 Sudoeste 0.2 -- -- 87
2019-04-05 08:00:00 7.5 14 Sudoeste 22 Sur 0.2 -- -- 83
2019-04-05 07:00:00 8 15 Sur 27 Sudoeste 0 -- -- 77
2019-04-05 06:00:00 7.8 16 Sur 22 Sudoeste 0 -- -- 72
2019-04-05 05:00:00 7.4 19 Sudoeste 39 Sudoeste 0 -- -- 71
2019-04-05 04:00:00 7.4 24 Sudoeste 32 Sudoeste 0 -- -- 70
2019-04-05 03:00:00 7.5 22 Sudoeste 30 Sudoeste 0 -- -- 63
2019-04-05 02:00:00 7.8 20 Sudoeste 31 Sudoeste 0 -- -- 58
2019-04-05 01:00:00 7.5 5 Sur 9 Sur 0 -- -- 57
2019-04-05 00:00:00 9 5 Sur 29 Sudoeste 0 -- -- 50
2019-04-04 23:00:00 9.8 16 Sudoeste 26 Sudoeste 0 -- -- 48
2019-04-04 22:00:00 11.1 26 Sudoeste 40 Sudoeste 0 -- -- 46
2019-04-04 21:00:00 12.7 10 Sudoeste 25 Sudoeste 0 -- -- 39
2019-04-04 20:00:00 15.3 20 Oeste 35 Sudoeste 0 -- -- 33
2019-04-04 19:00:00 16.4 26 Oeste 39 Sudoeste 0 -- -- 32
2019-04-04 18:00:00 17.2 25 Sudoeste 39 Sudoeste 0 -- -- 31
2019-04-04 17:00:00 17.8 24 Sudoeste 42 Sudoeste 0 -- -- 32
2019-04-04 16:00:00 17.9 21 Sudoeste 37 Sudoeste 0 -- -- 29
2019-04-04 15:00:00 17.3 20 Sudoeste 35 Sur 0 -- -- 34
2019-04-04 14:00:00 15.5 24 Sudoeste 33 Sudoeste 0 -- -- 27
2019-04-04 13:00:00 15 19 Sudoeste 28 Sudoeste 0 -- -- 29
2019-04-04 12:00:00 13.3 4 Norte 15 Nordeste 0 -- -- 43
2019-04-04 11:00:00 11.8 6 Nordeste 12 Nordeste 0 -- -- 47
2019-04-04 10:00:00 10.4 2 Sur 5 Sudoeste 0 -- -- 52
2019-04-04 09:00:00 5.1 5 Sudoeste 10 Sudoeste 0 -- -- 70
2019-04-04 08:00:00 4.3 6 Sudoeste 7 Sudoeste 0 -- -- 70
2019-04-04 07:00:00 6.1 3 Noroeste 9 Nordeste 0 -- -- 60
2019-04-04 06:00:00 7.3 7 Nordeste 12 Este 0 -- -- 54
2019-04-04 05:00:00 8.6 5 Este 12 Nordeste 0 -- -- 50
2019-04-04 04:00:00 9.2 3 Este 12 Nordeste 0 -- -- 48
2019-04-04 03:00:00 10.3 8 Nordeste 20 Nordeste 0 -- -- 48
2019-04-04 02:00:00 10.7 9 Nordeste 19 Nordeste 0 -- -- 49
2019-04-04 01:00:00 11.2 0 Calma 17 Sudoeste 0 -- -- 59
2019-04-04 00:00:00 11.4 10 Sudoeste 13 Sudoeste 0 -- -- 59
2019-04-03 23:00:00 12.5 6 Sur 16 Sudoeste 0 -- -- 56
2019-04-03 22:00:00 13.6 11 Sudoeste 18 Sudoeste 0 -- -- 52
2019-04-03 21:00:00 15.1 14 Sudoeste 36 Sudoeste 0 -- -- 47
2019-04-03 20:00:00 17.7 23 Sudoeste 41 Sudoeste 0 -- -- 42
2019-04-03 19:00:00 18.7 27 Sudoeste 40 Sudoeste 0 -- -- 40
2019-04-03 18:00:00 19.9 21 Oeste 41 Oeste 0 -- -- 37
2019-04-03 17:00:00 20.2 23 Oeste 41 Sudoeste 0 -- -- 40
2019-04-03 16:00:00 20.2 21 Sudoeste 36 Sudoeste 0 -- -- 39
2019-04-03 15:00:00 18.6 17 Oeste 30 Oeste 0 -- -- 46
2019-04-03 14:00:00 19.8 15 Sudoeste 34 Sur 0 -- -- 40
2019-04-03 13:00:00 18.7 5 Noroeste 14 Oeste 0 -- -- 49
2019-04-03 12:00:00 18 7 Este 10 Este 0 -- -- 59
2019-04-03 11:00:00 14.9 3 Sudoeste 6 Sur 0 -- -- 71
2019-04-03 10:00:00 11 4 Sudoeste 9 Sudoeste 0 -- -- 83
2019-04-03 09:00:00 7.9 5 Sudoeste 13 Sudoeste 0 -- -- 91
2019-04-03 08:00:00 7.5 9 Sudoeste 11 Sudoeste 0 -- -- 92
2019-04-03 07:00:00 7.7 8 Sudoeste 10 Sudoeste 0 -- -- 89
2019-04-03 06:00:00 7.5 7 Sudoeste 10 Sudoeste 0 -- -- 90
2019-04-03 05:00:00 7.1 9 Sudoeste 12 Sudoeste 0 -- -- 91
2019-04-03 04:00:00 7.6 9 Sudoeste 10 Sudoeste 0 -- -- 89
2019-04-03 03:00:00 8.1 8 Sudoeste 12 Sudoeste 0 -- -- 88
2019-04-03 02:00:00 9 9 Sudoeste 11 Sudoeste 0 -- -- 86
2019-04-03 01:00:00 10.4 5 Sur 6 Sudoeste 0 -- -- 81
2019-04-03 00:00:00 11.5 2 Sudoeste 8 Sudoeste 0 -- -- 77
2019-04-02 23:00:00 12.6 5 Sudoeste 9 Sudoeste 0 -- -- 73
2019-04-02 22:00:00 13.5 7 Sudoeste 11 Sudoeste 0 -- -- 69
2019-04-02 21:00:00 15.2 8 Sudoeste 17 Sur 0 -- -- 62
2019-04-02 20:00:00 18 14 Sudoeste 20 Sur 0 -- -- 52
2019-04-02 19:00:00 19.3 15 Sudoeste 22 Sudoeste 0 -- -- 50
2019-04-02 18:00:00 17 7 Norte 22 Noroeste 0 -- -- 58
2019-04-02 17:00:00 18.2 11 Norte 19 Noroeste 0 -- -- 57
2019-04-02 16:00:00 18.2 12 Norte 20 Norte 0 -- -- 58
2019-04-02 15:00:00 17.5 9 Norte 16 Norte 0 -- -- 57
2019-04-02 14:00:00 17.8 7 Este 18 Norte 0 -- -- 55
2019-04-02 13:00:00 15.8 6 Norte 12 Norte 0 -- -- 59
2019-04-02 12:00:00 15.3 7 Nordeste 17 Nordeste 0 -- -- 65
2019-04-02 11:00:00 13.4 7 Nordeste 13 Nordeste 0 -- -- 76
2019-04-02 10:00:00 9.6 4 Sudoeste 7 Sudoeste 0 -- -- 92
2019-04-02 09:00:00 6.6 7 Sudoeste 9 Sudoeste 0 -- -- 96
2019-04-02 08:00:00 6 3 Sudoeste 8 Sudoeste 0 -- -- 95
2019-04-02 07:00:00 6.5 3 Sudoeste 8 Sudoeste 0 -- -- 95
2019-04-02 06:00:00 7.2 4 Sudoeste 13 Sudoeste 0 -- -- 94
2019-04-02 05:00:00 8 10 Sudoeste 12 Sudoeste 0 -- -- 94
2019-04-02 04:00:00 8.8 8 Sudoeste 12 Sudoeste 0 -- -- 94
2019-04-02 03:00:00 9.4 5 Sudoeste 10 Sudoeste 0 -- -- 92
2019-04-02 02:00:00 10.2 6 Sudoeste 7 Sudoeste 0 -- -- 90
2019-04-02 01:00:00 10.6 2 Norte 6 Noroeste 0 -- -- 88
2019-04-02 00:00:00 10.8 0 Calma 8 Sur 0 -- -- 88
2019-04-01 23:00:00 11.1 6 Sur 17 Sudoeste 0 -- -- 85
2019-04-01 22:00:00 11.9 13 Sur 15 Sudoeste 0 -- -- 84
2019-04-01 21:00:00 12.2 9 Sur 26 Sudoeste 0 -- -- 85
2019-04-01 20:00:00 13.4 20 Sudoeste 30 Sudoeste 0 -- -- 73
2019-04-01 19:00:00 15.8 18 Sudoeste 24 Sudoeste 0 -- -- 60
2019-04-01 18:00:00 15.7 13 Sudoeste 26 Sudoeste 0 -- -- 60
2019-04-01 17:00:00 15.6 18 Sudoeste 27 Sudoeste 0 -- -- 63
2019-04-01 16:00:00 16.2 19 Sudoeste 26 Sudoeste 0 -- -- 57
2019-04-01 15:00:00 16.1 15 Sur 22 Sur 0 -- -- 57
2019-04-01 14:00:00 15.8 17 Sudoeste 28 Sudoeste 0 -- -- 63
2019-04-01 13:00:00 16.3 20 Sudoeste 27 Sudoeste 0 -- -- 56
2019-04-01 12:00:00 15 19 Sudoeste 26 Sudoeste 0 -- -- 64
2019-04-01 11:00:00 14.4 4 Sur 10 Sudoeste 0 -- -- 72
2019-04-01 10:00:00 10.3 7 Sudoeste 12 Sudoeste 0 -- -- 88
2019-04-01 09:00:00 9.2 8 Oeste 10 Oeste 0 -- -- 91
2019-04-01 08:00:00 9.4 3 Sudoeste 13 Oeste 0 -- -- 90
2019-04-01 07:00:00 9.8 6 Sudoeste 9 Sudoeste 0 -- -- 90
2019-04-01 06:00:00 10.6 0 Calma 8 Sudoeste 0 -- -- 88
2019-04-01 05:00:00 10.8 5 Sudoeste 10 Sudoeste 0 -- -- 86
2019-04-01 04:00:00 11.1 9 Sur 12 Sudoeste 0 -- -- 83
2019-04-01 03:00:00 10.9 10 Sudoeste 14 Sudoeste 0 -- -- 85
2019-04-01 02:00:00 11.1 9 Sudoeste 21 Sudoeste 0 -- -- 83
2019-04-01 01:00:00 11.5 16 Sudoeste 22 Sur 0 -- -- 80
2019-04-01 00:00:00 11.8 17 Sudoeste 31 Sudoeste 0 -- -- 81
2019-03-31 23:00:00 12 14 Sudoeste 22 Sudoeste 0 -- -- 83
2019-03-31 22:00:00 12.3 8 Nordeste 10 Nordeste 0 -- -- 79
2019-03-31 21:00:00 13.1 4 Nordeste 16 Norte 0 -- -- 73
2019-03-31 20:00:00 14.9 10 Norte 15 Norte 0 -- -- 65
2019-03-31 19:00:00 16 10 Norte 18 Norte 0.2 -- -- 66
2019-03-31 18:00:00 15.6 9 Norte 22 Nordeste 0 -- -- 66
2019-03-31 17:00:00 15.5 13 Norte 22 Norte 0 -- -- 69
2019-03-31 16:00:00 15.3 13 Norte 24 Norte 0 -- -- 74
2019-03-31 15:00:00 14.9 12 Norte 19 Nordeste 0 -- -- 78
2019-03-31 14:00:00 14 4 Norte 9 Norte 0.4 -- -- 88
2019-03-31 13:00:00 12.5 2 Norte 8 Nordeste 0.8 -- -- 91
2019-03-31 12:00:00 11.9 4 Nordeste 10 Nordeste 0.4 -- -- 94
2019-03-31 11:00:00 11.3 3 Nordeste 5 Nordeste 0.4 -- -- 94
2019-03-31 10:00:00 10.6 2 Nordeste 4 Norte 1 -- -- 96
2019-03-31 09:00:00 10.3 3 Nordeste 9 Nordeste 1.2 -- -- 96
2019-03-31 08:00:00 10.1 8 Nordeste 13 Nordeste 2.2 -- -- 96
2019-03-31 07:00:00 10.3 9 Nordeste 13 Nordeste 2 -- -- 95
2019-03-31 06:00:00 10.7 8 Nordeste 12 Nordeste 1 -- -- 93
2019-03-31 05:00:00 11.3 6 Norte 10 Norte 0 -- -- 87
2019-03-31 03:00:00 12.2 9 Norte 18 Sur 0.2 -- -- 78
2019-03-31 01:00:00 13.2 8 Sur 13 Sur 0 -- -- 67
2019-03-31 00:00:00 12.5 4 Sur 18 Sudoeste 0 -- -- 71
2019-03-30 23:00:00 12.6 10 Sudoeste 17 Sudoeste 0 -- -- 71
2019-03-30 22:00:00 12.9 9 Sudoeste 12 Sudoeste 0 -- -- 74
2019-03-30 21:00:00 14.1 9 Sudoeste 23 Sur 0 -- -- 68
2019-03-30 20:00:00 14.9 16 Sudoeste 30 Sudoeste 0 -- -- 61
2019-03-30 19:00:00 16.6 23 Sudoeste 31 Sudoeste 0 -- -- 55
2019-03-30 18:00:00 20 22 Sudoeste 31 Sudoeste 0 -- -- 45
2019-03-30 17:00:00 22.3 8 Norte 19 Norte 0 -- -- 36
2019-03-30 16:00:00 21.2 9 Norte 22 Norte 0 -- -- 37
2019-03-30 15:00:00 21 15 Norte 31 Norte 0 -- -- 36
2019-03-30 14:00:00 21 15 Norte 27 Norte 0 -- -- 36
2019-03-30 13:00:00 21.4 6 Oeste 15 Oeste 0 -- -- 36
2019-03-30 12:00:00 18.8 4 Oeste 12 Noroeste 0 -- -- 41
2019-03-30 11:00:00 16.9 5 Norte 12 Noroeste 0 -- -- 42
2019-03-30 10:00:00 14.4 6 Norte 12 Norte 0 -- -- 48
2019-03-30 09:00:00 12.2 5 Norte 9 Norte 0 -- -- 57
2019-03-30 08:00:00 10.4 4 Sur 15 Sudeste 0 -- -- 62
2019-03-30 07:00:00 8 2 Norte 9 Nordeste 0 -- -- 70
2019-03-30 06:00:00 8.5 0 Calma 10 Norte 0 -- -- 69
2019-03-30 05:00:00 9.2 5 Norte 8 Norte 0 -- -- 68
2019-03-30 04:00:00 9.7 2 Norte 8 Noroeste 0 -- -- 67
2019-03-30 03:00:00 9.7 5 Nordeste 9 Norte 0 -- -- 65
2019-03-30 02:00:00 10.4 4 Sudoeste 8 Sur 0 -- -- 60
2019-03-30 01:00:00 10.8 6 Sudoeste 10 Sudoeste 0 -- -- 59
2019-03-30 00:00:00 11.1 4 Sudoeste 23 Sudeste 0 -- -- 57
2019-03-29 23:00:00 10.1 7 Sudoeste 9 Sudoeste 0 -- -- 64
2019-03-29 22:00:00 11.7 7 Sur 13 Sur 0 -- -- 58
2019-03-29 21:00:00 13.2 10 Sur 15 Sur 0 -- -- 53
2019-03-29 20:00:00 14.7 13 Sudoeste 26 Sudoeste 0 -- -- 49
2019-03-29 19:00:00 17 18 Sudoeste 24 Sudoeste 0 -- -- 41
2019-03-29 18:00:00 19.6 13 Sudoeste 29 Sudoeste 0 -- -- 36
2019-03-29 17:00:00 21.2 7 Oeste 17 Noroeste 0 -- -- 28
2019-03-29 16:00:00 21.6 13 Oeste 21 Oeste 0 -- -- 27
2019-03-29 15:00:00 20.9 5 Oeste 22 Sur 0 -- -- 27
2019-03-29 14:00:00 21.2 15 Sur 30 Sur 0 -- -- 26
2019-03-29 13:00:00 19.4 17 Sudoeste 27 Sur 0 -- -- 28
2019-03-29 12:00:00 18.2 13 Sudoeste 24 Sur 0 -- -- 24
2019-03-29 11:00:00 15.4 5 Sudoeste 13 Sudoeste 0 -- -- 30
2019-03-29 10:00:00 13.6 5 Oeste 9 Sudoeste 0 -- -- 31
2019-03-29 09:00:00 11.5 2 Sur 13 Oeste 0 -- -- 38
2019-03-29 08:00:00 8.8 6 Sudoeste 14 Sudeste 0 -- -- 40
2019-03-29 07:00:00 8.3 5 Sudoeste 20 Sudeste 0 -- -- 36
2019-03-29 06:00:00 7.4 6 Sudoeste 13 Sudeste 0 -- -- 38
2019-03-29 05:00:00 7.4 6 Sudoeste 13 Oeste 0 -- -- 37
2019-03-29 04:00:00 7.7 10 Sudoeste 29 Sudeste 0 -- -- 38
2019-03-29 03:00:00 9.7 13 Sur 26 Sudeste 0 -- -- 32
2019-03-29 02:00:00 10.2 7 Nordeste 19 Sudeste 0 -- -- 30
2019-03-29 01:00:00 10.3 2 Este 24 Este 0 -- -- 33
2019-03-29 00:00:00 11.2 9 Este 28 Sudeste 0 -- -- 32
2019-03-28 23:00:00 12.2 15 Sudeste 30 Este 0 -- -- 30
2019-03-28 22:00:00 13 7 Nordeste 26 Sudeste 0 -- -- 32
2019-03-28 21:00:00 13 6 Sudoeste 32 Nordeste 0 -- -- 41
2019-03-28 20:00:00 14.4 9 Sur 31 Sudoeste 0 -- -- 37
2019-03-28 19:00:00 19.2 17 Sudoeste 27 Sudoeste 0 -- -- 27
2019-03-28 18:00:00 20.1 9 Noroeste 22 Noroeste 0 -- -- 20
2019-03-28 17:00:00 20.6 10 Noroeste 26 Noroeste 0 -- -- 20
2019-03-28 16:00:00 20.1 16 Norte 28 Nordeste 0 -- -- 19
2019-03-28 15:00:00 19.4 5 Nordeste 27 Nordeste 0 -- -- 21
2019-03-28 14:00:00 19.7 10 Sudeste 35 Sudeste 0 -- -- 23
2019-03-28 13:00:00 17.6 11 Sudeste 31 Sur 0 -- -- 24
2019-03-28 12:00:00 16.6 11 Sudeste 26 Sudeste 0 -- -- 26
2019-03-28 11:00:00 14.6 9 Este 25 Sur 0 -- -- 32
2019-03-28 10:00:00 12.3 19 Sur 26 Sur 0 -- -- 38
2019-03-28 09:00:00 11 0 Calma 6 Oeste 0 -- -- 45
2019-03-28 08:00:00 7.4 3 Sur 36 Este 0 -- -- 49
2019-03-28 07:00:00 5.4 9 Sur 26 Sudeste 0 -- -- 66
2019-03-28 06:00:00 4 4 Sudoeste 7 Oeste 0 -- -- 82
2019-03-28 05:00:00 5.8 0 Calma 7 Este 0 -- -- 75
2019-03-28 04:00:00 6.1 0 Calma 8 Norte 0 -- -- 76
2019-03-28 03:00:00 8.1 5 Norte 7 Nordeste 0 -- -- 67
2019-03-28 02:00:00 7.7 2 Nordeste 7 Nordeste 0 -- -- 74
2019-03-28 01:00:00 7.4 6 Sudoeste 9 Sudoeste 0 -- -- 75
2019-03-28 00:00:00 8.4 9 Sudoeste 13 Sudoeste 0 -- -- 70
2019-03-27 23:00:00 9.4 9 Sudoeste 19 Sudoeste 0 -- -- 66
2019-03-27 22:00:00 10.7 8 Sudoeste 17 Sudoeste 0 -- -- 62
2019-03-27 21:00:00 12.1 12 Sudoeste 23 Sudoeste 0 -- -- 57
2019-03-27 20:00:00 13.9 17 Sudoeste 28 Sudoeste 0 -- -- 49
2019-03-27 19:00:00 17.5 20 Sudoeste 36 Sudoeste 0 -- -- 38
2019-03-27 18:00:00 19.8 12 Oeste 23 Norte 0 -- -- 30
2019-03-27 17:00:00 20.3 10 Este 26 Nordeste 0 -- -- 22
2019-03-27 16:00:00 19.7 13 Nordeste 29 Nordeste 0 -- -- 21
2019-03-27 15:00:00 19.1 10 Nordeste 30 Este 0 -- -- 22
2019-03-27 14:00:00 18.4 11 Este 26 Sudeste 0 -- -- 24
2019-03-27 13:00:00 18.1 10 Este 31 Sudeste 0 -- -- 26
2019-03-27 12:00:00 17.2 11 Este 28 Este 0 -- -- 28
2019-03-27 11:00:00 15.1 6 Norte 17 Nordeste 0 -- -- 27
2019-03-27 10:00:00 14.2 10 Nordeste 23 Este 0 -- -- 29
2019-03-27 09:00:00 12.4 10 Este 36 Este 0 -- -- 31
2019-03-27 08:00:00 11 16 Este 35 Este 0 -- -- 31
2019-03-27 07:00:00 10.3 13 Este 37 Nordeste 0 -- -- 29
2019-03-27 06:00:00 10.2 13 Norte 45 Nordeste 0 -- -- 30
2019-03-27 05:00:00 11.4 17 Este 40 Sudeste 0 -- -- 29
2019-03-27 04:00:00 11.5 18 Sudeste 42 Este 0 -- -- 34
2019-03-27 03:00:00 12.4 15 Este 28 Este 0 -- -- 32
2019-03-27 02:00:00 12.5 10 Sur 30 Sudeste 0 -- -- 32
2019-03-27 01:00:00 13 10 Sur 22 Sudeste 0 -- -- 43
2019-03-27 00:00:00 13.9 12 Nordeste 30 Nordeste 0 -- -- 46
2019-03-26 23:00:00 14.7 11 Norte 43 Norte 0 -- -- 46
2019-03-26 22:00:00 15.2 9 Noroeste 21 Norte 0 -- -- 47
2019-03-26 21:00:00 16.1 9 Oeste 24 Nordeste 0 -- -- 44
2019-03-26 20:00:00 17.7 6 Norte 26 Sur 0 -- -- 38
2019-03-26 19:00:00 19.2 12 Este 38 Este 0 -- -- 34
2019-03-26 18:00:00 20.7 8 Este 37 Este 0 -- -- 31
2019-03-26 17:00:00 21.9 18 Este 33 Sudeste 0 -- -- 27
2019-03-26 16:00:00 22.5 21 Este 36 Este 0 -- -- 26
2019-03-26 15:00:00 24.1 13 Sudeste 27 Este 0 -- -- 25
2019-03-26 14:00:00 24 10 Este 22 Sudeste 0 -- -- 25
2019-03-26 13:00:00 23.2 14 Nordeste 28 Este 0 -- -- 25
2019-03-26 12:00:00 22.1 12 Sudeste 26 Sudeste 0 -- -- 24
2019-03-26 11:00:00 20.8 11 Sudeste 30 Sudeste 0 -- -- 24
2019-03-26 10:00:00 18.9 15 Sudeste 25 Sudeste 0 -- -- 24
2019-03-26 09:00:00 14.2 9 Sudoeste 18 Sudoeste 0 -- -- 38
2019-03-26 08:00:00 9.2 11 Sudoeste 16 Sudoeste 0 -- -- 66
2019-03-26 07:00:00 9.4 6 Sudoeste 9 Sudoeste 0 -- -- 67
2019-03-26 06:00:00 11.2 0 Calma 6 Este 0 -- -- 59
2019-03-26 05:00:00 11.3 4 Sudoeste 11 Sudoeste 0 -- -- 60
2019-03-26 04:00:00 11.8 7 Sudoeste 14 Sudoeste 0 -- -- 58
2019-03-26 03:00:00 14.4 5 Sur 24 Sudeste 0 -- -- 45
2019-03-26 02:00:00 14.7 4 Sur 22 Sudeste 0 -- -- 47
2019-03-26 01:00:00 14.4 9 Oeste 15 Oeste 0 -- -- 48
2019-03-26 00:00:00 13.8 6 Sudoeste 15 Oeste 0 -- -- 54
2019-03-25 23:00:00 14.2 12 Oeste 19 Oeste 0 -- -- 57
2019-03-25 22:00:00 14.6 9 Sudoeste 17 Sudoeste 0 -- -- 56
2019-03-25 21:00:00 16.4 14 Sudoeste 22 Sudoeste 0 -- -- 51
2019-03-25 20:00:00 19 4 Sur 24 Norte 0 -- -- 38
2019-03-25 19:00:00 20.9 6 Norte 21 Norte 0 -- -- 34
2019-03-25 18:00:00 21.8 9 Norte 18 Norte 0 -- -- 34
2019-03-25 17:00:00 22.3 11 Nordeste 22 Nordeste 0 -- -- 32
2019-03-25 16:00:00 22.4 10 Nordeste 22 Nordeste 0 -- -- 34
2019-03-25 15:00:00 21.6 7 Norte 23 Noroeste 0 -- -- 35
2019-03-25 14:00:00 20.5 12 Norte 25 Nordeste 0 -- -- 37
2019-03-25 13:00:00 19.6 15 Nordeste 23 Nordeste 0 -- -- 39
2019-03-25 12:00:00 18.8 12 Nordeste 26 Nordeste 0 -- -- 39
2019-03-25 11:00:00 17.4 8 Nordeste 19 Este 0 -- -- 44
2019-03-25 10:00:00 14.5 5 Oeste 12 Noroeste 0 -- -- 55
2019-03-25 09:00:00 8.5 9 Sudoeste 14 Sudoeste 0 -- -- 77
2019-03-25 08:00:00 6.3 12 Sudoeste 13 Sudoeste 0 -- -- 83
2019-03-25 07:00:00 6.7 7 Sudoeste 10 Sudoeste 0 -- -- 79
2019-03-25 06:00:00 7.6 8 Sudoeste 12 Sudoeste 0 -- -- 75
2019-03-25 05:00:00 9.6 7 Sudoeste 14 Sudeste 0 -- -- 65
2019-03-25 04:00:00 11.6 9 Sudeste 21 Sur 0 -- -- 56
2019-03-25 03:00:00 10.2 6 Sudoeste 12 Sur 0 -- -- 66
2019-03-25 02:00:00 12.5 6 Sur 17 Sur 0 -- -- 54
2019-03-25 01:00:00 12.7 4 Sur 9 Noroeste 0 -- -- 55
2019-03-25 00:00:00 13.9 7 Norte 28 Nordeste 0 -- -- 51